Time;durP1;ratioP1;P1;durP2;ratioP2;P2;SDS_P1;SDS_P2;PMS_P1;PMS_P2;Temp;Humidity;BMP_temperature;BMP_pressure;BME280_temperature;BME280_humidity;BME280_pressure;Samples;Min_cycle;Max_cycle;Signal;HPM_P1;HPM_P2
2022/05/07 00:02:06;;;;;;;8.32;5.63;;;;;;;15.78;47.57;100200.16;5032172;28;20026;-88
2022/05/07 00:04:37;;;;;;;9.20;6.75;;;;;;;15.74;47.99;100198.91;5032406;28;20418;-88
2022/05/07 00:07:06;;;;;;;7.20;6.10;;;;;;;15.67;48.30;100214.84;5032790;28;20100;-88
2022/05/07 00:09:32;;;;;;;8.73;6.63;;;;;;;14.84;48.15;100096.66;5032254;28;20411;-88
2022/05/07 00:11:58;;;;;;;7.57;6.13;;;;;;;15.43;48.45;100193.94;5032328;28;20429;-88
2022/05/07 00:14:24;;;;;;;8.82;5.68;;;;;;;15.15;48.68;100154.00;5014700;28;20040;-88
2022/05/07 00:19:34;;;;;;;8.45;6.03;;;;;;;15.16;48.63;100164.47;5032089;28;20109;-88
2022/05/07 00:22:00;;;;;;;9.50;5.97;;;;;;;14.71;48.64;100090.41;5031959;28;20545;-88
2022/05/07 00:24:25;;;;;;;6.82;6.13;;;;;;;14.96;49.12;100139.53;5014207;28;20060;-88
2022/05/07 00:26:51;;;;;;;7.40;5.57;;;;;;;15.01;48.95;100144.28;5014284;28;20414;-88
2022/05/07 00:29:16;;;;;;;7.15;5.95;;;;;;;14.63;48.99;100080.75;5014186;28;20422;-88
2022/05/07 00:31:42;;;;;;;7.05;5.68;;;;;;;14.94;49.10;100133.59;5014397;28;20032;-88
2022/05/07 00:34:08;;;;;;;9.50;5.80;;;;;;;15.26;49.14;100178.25;5032138;28;20112;-88
2022/05/07 00:36:33;;;;;;;7.00;6.30;;;;;;;15.46;48.69;100212.16;5014480;28;20033;-88
2022/05/07 00:38:59;;;;;;;9.27;6.35;;;;;;;14.97;48.93;100117.25;5017181;28;20025;-88
2022/05/07 00:41:24;;;;;;;8.98;6.45;;;;;;;15.19;49.31;100153.44;5035720;28;20065;-88
2022/05/07 00:43:50;;;;;;;9.77;6.03;;;;;;;15.15;48.93;100149.53;5036031;28;20029;-88
2022/05/07 00:46:16;;;;;;;8.82;6.57;;;;;;;15.06;49.16;100148.00;5035860;28;20029;-88
2022/05/07 00:48:42;;;;;;;7.05;6.35;;;;;;;14.63;48.91;100102.84;5036219;28;20029;-88
2022/05/07 00:53:53;;;;;;;8.18;6.72;;;;;;;14.90;48.85;100153.59;5036490;28;20092;-87
2022/05/07 00:56:18;;;;;;;8.52;7.60;;;;;;;14.82;48.85;100156.38;5018025;28;20040;-89
2022/05/07 00:58:44;;;;;;;8.10;7.18;;;;;;;14.69;48.80;100143.78;5017921;28;20046;-88
2022/05/07 01:01:09;;;;;;;7.45;6.55;;;;;;;14.14;48.79;100059.41;5034918;28;20065;-90
2022/05/07 01:03:35;;;;;;;10.15;7.38;;;;;;;14.19;48.83;100078.25;5035025;28;20116;-89
2022/05/07 01:06:01;;;;;;;10.55;7.07;;;;;;;14.22;48.74;100069.91;5017682;28;20061;-89
2022/05/07 01:08:30;;;;;;;10.27;6.68;;;;;;;14.90;48.99;100173.03;5018017;28;20509;-89
2022/05/07 01:10:56;;;;;;;7.28;6.53;;;;;;;14.92;48.92;100167.53;5017476;28;20029;-89
2022/05/07 01:13:22;;;;;;;8.10;6.68;;;;;;;14.42;48.78;100108.16;5035145;28;20049;-89
2022/05/07 01:15:54;;;;;;;8.55;6.88;;;;;;;14.32;48.77;100081.84;5035278;28;20425;-88
2022/05/07 01:18:20;;;;;;;13.50;7.18;;;;;;;14.89;49.15;100171.41;5035151;28;20025;-88
2022/05/07 01:20:45;;;;;;;12.48;6.75;;;;;;;14.00;49.03;100038.00;5035294;28;20029;-88
2022/05/07 01:23:12;;;;;;;8.70;6.60;;;;;;;14.49;49.30;100121.50;5017680;28;20032;-88
2022/05/07 01:25:37;;;;;;;11.88;6.90;;;;;;;14.11;49.63;100057.09;5017536;28;20025;-88
2022/05/07 01:28:03;;;;;;;8.90;6.22;;;;;;;14.84;49.97;100170.28;5017402;28;20029;-88
2022/05/07 01:30:29;;;;;;;11.23;6.88;;;;;;;14.24;50.31;100100.56;5017550;28;20029;-88
2022/05/07 01:32:54;;;;;;;8.13;6.57;;;;;;;14.69;49.92;100161.56;5034763;28;20033;-88
2022/05/07 01:35:19;;;;;;;11.73;7.22;;;;;;;14.27;49.96;100086.09;5035007;28;20022;-88
2022/05/07 01:37:45;;;;;;;10.48;6.25;;;;;;;14.14;50.25;100062.06;5034769;28;20423;-88
2022/05/07 01:40:13;;;;;;;8.85;6.05;;;;;;;14.07;50.11;100056.66;5017393;28;20083;-88
2022/05/07 01:42:41;;;;;;;10.90;6.13;;;;;;;14.72;50.54;100212.50;5017601;28;20037;-90
2022/05/07 01:45:07;;;;;;;11.85;6.82;;;;;;;13.74;50.17;100031.56;5037398;28;20032;-89
2022/05/07 01:50:24;;;;;;;9.85;6.53;;;;;;;14.54;50.48;100166.94;5037082;28;20036;-89
2022/05/07 01:52:49;;;;;;;12.95;7.15;;;;;;;14.17;50.65;100123.59;5019627;28;20455;-89
2022/05/07 01:55:15;;;;;;;11.38;7.45;;;;;;;13.85;50.76;100081.50;5017614;28;20030;-89
2022/05/07 01:57:40;;;;;;;10.50;7.00;;;;;;;13.81;50.75;100051.88;5035221;28;20433;-90
2022/05/07 02:00:06;;;;;;;10.63;7.00;;;;;;;13.70;50.35;100044.38;5034796;28;20037;-90
2022/05/07 02:02:32;;;;;;;8.50;6.68;;;;;;;13.69;50.23;100056.00;5016789;28;20538;-89
2022/05/07 02:04:57;;;;;;;10.75;7.00;;;;;;;13.93;50.29;100087.53;5017038;28;20168;-90
2022/05/07 02:07:23;;;;;;;7.85;7.07;;;;;;;13.95;50.17;100101.44;5017029;28;20022;-89
2022/05/07 02:09:48;;;;;;;8.52;5.70;;;;;;;13.41;49.88;100025.84;5016847;28;20030;-90
2022/05/07 02:12:14;;;;;;;7.55;5.88;;;;;;;14.13;49.44;100161.31;5016865;28;20056;-90
2022/05/07 02:14:39;;;;;;;6.43;5.70;;;;;;;13.22;49.61;100030.69;5016393;28;20029;-90
2022/05/07 02:17:05;;;;;;;6.63;5.68;;;;;;;13.44;49.78;100089.97;5016521;28;20091;-89
2022/05/07 02:19:30;;;;;;;8.77;5.90;;;;;;;13.59;49.90;100108.53;5016357;28;20021;-90
2022/05/07 02:21:56;;;;;;;6.05;5.45;;;;;;;13.14;49.67;100040.53;5016651;28;20497;-90
2022/05/07 02:24:21;;;;;;;9.32;5.35;;;;;;;13.22;49.59;100056.38;5033903;28;20060;-90
2022/05/07 02:26:46;;;;;;;6.78;5.70;;;;;;;13.45;49.46;100086.31;5015944;28;20025;-90
2022/05/07 02:29:14;;;;;;;7.72;5.20;;;;;;;13.07;49.24;100042.25;5015788;28;20025;-90
2022/05/07 02:31:40;;;;;;;6.78;5.10;;;;;;;13.58;49.77;100146.69;5016032;28;20013;-90
2022/05/07 02:34:05;;;;;;;6.10;4.78;;;;;;;12.72;49.69;100031.34;5015857;28;20040;-90
2022/05/07 02:36:32;;;;;;;8.20;5.93;;;;;;;13.46;49.64;100169.38;5015929;28;20112;-90
2022/05/07 02:38:58;;;;;;;7.20;5.38;;;;;;;13.46;49.72;100164.06;5033397;28;20079;-90
2022/05/07 02:44:08;;;;;;;5.47;4.80;;;;;;;12.52;49.60;100028.34;5033930;28;20063;-90
2022/05/07 02:46:33;;;;;;;6.45;4.72;;;;;;;12.95;49.89;100116.91;5033796;28;20026;-90
2022/05/07 02:48:59;;;;;;;8.57;4.88;;;;;;;11.83;49.77;99942.81;5015988;28;20025;-90
2022/05/07 02:51:24;;;;;;;6.50;4.53;;;;;;;12.91;49.81;100152.72;5033668;28;20513;-90
2022/05/07 02:53:49;;;;;;;8.00;5.53;;;;;;;12.64;49.95;100114.38;5033668;28;20025;-90
2022/05/07 02:56:15;;;;;;;7.20;4.93;;;;;;;12.12;50.23;100042.72;5033176;28;20422;-90
2022/05/07 02:58:40;;;;;;;5.90;4.53;;;;;;;12.41;50.11;100109.03;5015426;28;20107;-90
2022/05/07 03:01:06;;;;;;;6.50;5.03;;;;;;;12.67;50.07;100172.28;5014572;28;20022;-90
2022/05/07 03:03:31;;;;;;;13.50;5.00;;;;;;;11.76;50.60;100042.38;5015407;28;20498;-90
2022/05/07 03:05:59;;;;;;;8.93;5.55;;;;;;;12.05;50.59;100114.06;5015249;28;20395;-90
2022/05/07 03:08:25;;;;;;;5.28;4.43;;;;;;;11.44;50.72;100020.38;5015170;28;20067;-90
2022/05/07 03:10:50;;;;;;;7.93;4.53;;;;;;;12.06;51.24;100154.59;5033288;28;20029;-90
2022/05/07 03:13:16;;;;;;;6.43;5.15;;;;;;;11.86;51.38;100116.28;5015564;28;20108;-90
2022/05/07 03:15:41;;;;;;;6.95;5.30;;;;;;;11.89;51.08;100119.44;5033647;28;20056;-91
2022/05/07 03:18:06;;;;;;;7.65;4.88;;;;;;;11.96;51.00;100143.38;5033185;28;20487;-91
2022/05/07 03:20:32;;;;;;;7.50;4.80;;;;;;;11.64;51.13;100104.59;5033264;28;20029;-90
2022/05/07 03:22:58;;;;;;;6.85;5.57;;;;;;;12.03;51.50;100168.16;5015432;28;20021;-90
2022/05/07 03:25:24;;;;;;;6.13;5.25;;;;;;;11.43;51.32;100076.91;5015223;28;20028;-91
2022/05/07 03:27:49;;;;;;;6.47;5.13;;;;;;;11.41;50.77;100094.75;5015087;28;20406;-91
2022/05/07 03:30:15;;;;;;;8.05;5.78;;;;;;;11.81;51.33;100143.25;5032744;28;20509;-91
2022/05/07 03:32:40;;;;;;;7.45;5.38;;;;;;;11.40;51.39;100100.22;5015095;28;20021;-91
2022/05/07 03:35:06;;;;;;;6.40;4.93;;;;;;;11.57;51.34;100136.19;5014844;28;20032;-91
2022/05/07 03:37:31;;;;;;;6.15;5.00;;;;;;;11.48;51.07;100131.09;5014727;28;20469;-91
2022/05/07 03:39:57;;;;;;;6.22;5.45;;;;;;;11.53;51.28;100140.16;5032464;28;20029;-91
2022/05/07 03:42:22;;;;;;;5.88;5.03;;;;;;;11.06;51.04;100045.75;5033107;28;20096;-91
2022/05/07 03:44:48;;;;;;;6.63;4.88;;;;;;;11.52;51.17;100117.38;5015323;28;20520;-91
2022/05/07 03:47:13;;;;;;;5.90;4.93;;;;;;;11.98;51.17;100189.03;5033003;28;20034;-91
2022/05/07 03:49:39;;;;;;;7.50;5.60;;;;;;;11.05;50.91;100053.84;5032987;28;20086;-91
2022/05/07 03:54:49;;;;;;;5.05;4.45;;;;;;;11.54;51.62;100135.72;5032815;28;20083;-91
2022/05/07 03:57:16;;;;;;;6.47;5.75;;;;;;;11.14;51.22;100060.75;5014975;28;20021;-91
2022/05/07 03:59:42;;;;;;;9.23;5.40;;;;;;;12.00;51.11;100200.25;5014820;28;20045;-91
2022/05/07 04:02:07;;;;;;;10.57;5.80;;;;;;;11.75;51.23;100165.06;5014715;28;20064;-91
2022/05/07 04:04:33;;;;;;;7.22;5.32;;;;;;;11.63;51.16;100148.72;5014833;28;20036;-91
2022/05/07 04:06:59;;;;;;;9.68;5.80;;;;;;;11.23;51.53;100067.72;5032440;28;20056;-91
2022/05/07 04:09:24;;;;;;;9.68;5.97;;;;;;;11.29;51.50;100072.31;5014816;28;20025;-91
2022/05/07 04:11:50;;;;;;;8.57;6.10;;;;;;;11.94;51.00;100183.25;5014350;28;20021;-91
2022/05/07 04:14:15;;;;;;;9.85;5.32;;;;;;;11.87;51.56;100149.69;5014886;28;20029;-90
2022/05/07 04:16:41;;;;;;;6.43;5.60;;;;;;;12.24;51.47;100224.00;5032403;28;20036;-91
2022/05/07 04:19:06;;;;;;;8.45;6.22;;;;;;;11.39;51.29;100072.94;5014714;28;20029;-91
2022/05/07 04:21:34;;;;;;;7.63;5.68;;;;;;;11.91;51.53;100153.66;5014502;28;20018;-90
2022/05/07 04:23:59;;;;;;;6.15;5.55;;;;;;;11.40;51.68;100079.88;5014584;28;20045;-91
2022/05/07 04:26:25;;;;;;;8.35;5.90;;;;;;;11.99;51.81;100175.63;5031728;28;20079;-91
2022/05/07 04:28:50;;;;;;;9.32;6.70;;;;;;;11.49;51.62;100098.38;5031563;28;20458;-91
2022/05/07 04:31:18;;;;;;;7.72;6.78;;;;;;;11.64;51.97;100108.06;5013933;28;20025;-90
2022/05/07 04:33:44;;;;;;;10.13;7.38;;;;;;;12.17;51.84;100170.06;5031787;28;20021;-90
2022/05/07 04:36:10;;;;;;;8.07;7.28;;;;;;;11.83;52.36;100106.03;5013947;28;20026;-90
2022/05/07 04:38:35;;;;;;;9.07;7.47;;;;;;;12.17;52.14;100163.97;5014173;28;20094;-90
2022/05/07 04:41:00;;;;;;;9.27;7.60;;;;;;;12.48;52.34;100209.81;5032122;28;20097;-90
2022/05/07 04:43:26;;;;;;;11.63;7.75;;;;;;;12.02;52.20;100111.75;5014623;28;20026;-90
2022/05/07 04:45:51;;;;;;;7.65;6.78;;;;;;;12.16;51.98;100115.50;5014577;28;20112;-90
2022/05/07 04:48:17;;;;;;;9.60;7.57;;;;;;;11.92;51.71;100073.28;5032413;28;20021;-90
2022/05/07 04:50:42;;;;;;;9.38;7.78;;;;;;;12.90;52.21;100229.78;5014530;28;20025;-90
2022/05/07 04:53:07;;;;;;;11.23;7.68;;;;;;;12.93;52.12;100211.69;5014769;28;20041;-90
2022/05/07 04:55:33;;;;;;;9.60;7.78;;;;;;;12.87;51.82;100182.41;5032464;28;20513;-90
2022/05/07 04:57:58;;;;;;;14.73;7.95;;;;;;;12.61;52.18;100138.53;5033648;28;20053;-90
2022/05/07 05:00:24;;;;;;;11.65;8.60;;;;;;;12.45;52.39;100098.09;5056655;28;20006;-90
2022/05/07 05:02:49;;;;;;;15.30;9.98;;;;;;;12.68;52.77;100154.56;5057077;28;20045;-90
2022/05/07 05:05:14;;;;;;;10.82;9.07;;;;;;;13.01;52.65;100186.94;5057231;28;20013;-90
2022/05/07 05:07:40;;;;;;;12.90;9.30;;;;;;;13.25;52.74;100223.91;5039575;28;20146;-90
2022/05/07 05:10:06;;;;;;;12.32;9.02;;;;;;;13.10;52.95;100175.28;5044807;28;20095;-90
2022/05/07 05:12:32;;;;;;;11.05;9.55;;;;;;;13.05;53.22;100167.03;5030978;28;20021;-90
2022/05/07 05:15:08;;;;;;;16.65;9.88;;;;;;;13.33;53.05;100192.00;5013550;28;20026;-89
2022/05/07 05:17:34;;;;;;;12.80;10.45;;;;;;;13.86;53.25;100253.03;5031448;28;20079;-90
2022/05/07 05:20:02;;;;;;;11.95;9.82;;;;;;;13.97;52.94;100255.25;5031265;28;20502;-90
2022/05/07 05:22:28;;;;;;;14.45;10.35;;;;;;;14.04;53.12;100253.50;5031093;28;20018;-90
2022/05/07 05:24:54;;;;;;;18.83;10.88;;;;;;;13.09;52.94;100086.13;5016063;28;20117;-89
2022/05/07 05:27:20;;;;;;;15.05;9.57;;;;;;;14.02;53.07;100222.84;5035416;28;20524;-90
2022/05/07 05:29:46;;;;;;;15.60;10.82;;;;;;;14.27;53.04;100246.28;5017381;28;20070;-90
2022/05/07 05:32:17;;;;;;;14.18;11.15;;;;;;;14.13;53.28;100206.47;5017601;28;20053;-90
2022/05/07 05:34:47;;;;;;;14.45;9.55;;;;;;;13.80;52.76;100147.59;5035213;28;20021;-89
2022/05/07 05:37:14;;;;;;;13.48;11.00;;;;;;;13.87;52.90;100138.72;5017071;28;20036;-89
2022/05/07 05:39:40;;;;;;;14.38;11.30;;;;;;;14.08;52.86;100163.69;5017203;28;20021;-90
2022/05/07 05:42:05;;;;;;;17.65;11.43;;;;;;;13.71;53.29;100099.09;5017195;28;20033;-89
2022/05/07 05:44:31;;;;;;;17.38;11.88;;;;;;;13.88;53.18;100119.13;5034973;28;20025;-89
2022/05/07 05:46:56;;;;;;;12.80;10.55;;;;;;;14.82;53.08;100260.88;5034774;28;20100;-89
2022/05/07 05:49:22;;;;;;;16.88;10.82;;;;;;;14.19;52.99;100144.66;5034591;28;20032;-89
2022/05/07 05:51:47;;;;;;;15.20;11.25;;;;;;;14.40;52.91;100216.41;5034868;28;20513;-89
2022/05/07 05:54:13;;;;;;;17.25;11.93;;;;;;;14.37;53.10;100161.00;5016648;28;20021;-89
2022/05/07 05:56:39;;;;;;;24.38;12.27;;;;;;;14.69;52.86;100202.25;5034147;28;20021;-89
2022/05/07 05:59:04;;;;;;;15.75;10.57;;;;;;;14.93;52.93;100233.00;5034449;28;20548;-89
2022/05/07 06:01:30;;;;;;;12.18;10.35;;;;;;;14.59;53.09;100169.84;5016841;28;20482;-89
2022/05/07 06:03:55;;;;;;;15.88;10.15;;;;;;;14.92;52.90;100207.41;5016438;28;20025;-89
2022/05/07 06:06:21;;;;;;;14.65;10.93;;;;;;;14.87;52.70;100178.75;5016257;28;20056;-89
2022/05/07 06:08:47;;;;;;;16.27;10.43;;;;;;;15.09;52.50;100200.81;5033811;28;20025;-89
2022/05/07 06:11:13;;;;;;;13.68;9.65;;;;;;;15.19;52.54;100206.63;5016093;28;20024;-89
2022/05/07 06:13:38;;;;;;;11.35;9.45;;;;;;;15.44;52.19;100243.47;5033741;28;20013;-89
2022/05/07 06:16:04;;;;;;;15.27;10.40;;;;;;;14.97;52.01;100154.47;5033708;28;20037;-89
2022/05/07 06:18:29;;;;;;;14.55;11.18;;;;;;;14.88;51.95;100123.72;5033809;28;20032;-89
2022/05/07 06:20:55;;;;;;;19.35;13.52;;;;;;;15.10;51.77;100145.78;5033920;28;20085;-89
2022/05/07 06:23:20;;;;;;;19.33;15.18;;;;;;;15.20;52.01;100152.44;5033879;28;20506;-89
2022/05/07 06:28:30;;;;;;;18.80;14.57;;;;;;;15.63;51.66;100215.44;5033861;28;20031;-89
2022/05/07 06:30:55;;;;;;;19.05;14.65;;;;;;;15.27;51.46;100137.34;5034074;28;20022;-87
2022/05/07 06:33:21;;;;;;;16.33;13.15;;;;;;;15.41;51.37;100145.41;5034001;28;20081;-87
2022/05/07 06:35:47;;;;;;;19.67;16.63;;;;;;;16.18;51.41;100263.28;5033968;28;20029;-87
2022/05/07 06:38:13;;;;;;;16.02;14.32;;;;;;;15.80;51.36;100217.59;5033952;28;20108;-88
2022/05/07 06:40:39;;;;;;;18.88;14.52;;;;;;;16.25;51.44;100266.00;5033508;28;20105;-87
2022/05/07 06:43:05;;;;;;;20.98;15.75;;;;;;;15.44;51.15;100126.38;5015275;28;20024;-88
2022/05/07 06:45:31;;;;;;;18.73;14.60;;;;;;;15.74;51.31;100173.09;5033164;28;20079;-87
2022/05/07 06:47:57;;;;;;;15.63;14.07;;;;;;;15.86;51.28;100179.53;5015522;28;20383;-87
2022/05/07 06:50:22;;;;;;;21.15;17.25;;;;;;;15.62;50.75;100134.75;5015415;28;20108;-87
2022/05/07 06:52:48;;;;;;;19.45;17.42;;;;;;;16.27;50.76;100225.81;5015292;28;20108;-87
2022/05/07 06:55:15;;;;;;;18.05;15.40;;;;;;;16.62;50.57;100280.75;5033200;28;20032;-87
2022/05/07 06:57:41;;;;;;;14.57;13.18;;;;;;;16.67;50.47;100261.50;5033224;28;20059;-89
2022/05/07 07:00:08;;;;;;;16.58;12.98;;;;;;;16.51;50.50;100228.81;5033283;28;20014;-87
2022/05/07 07:02:34;;;;;;;18.35;13.70;;;;;;;15.78;50.31;100083.84;5033285;28;20087;-87
2022/05/07 07:05:00;;;;;;;15.68;12.10;;;;;;;16.46;49.73;100163.81;5015455;28;20029;-87
2022/05/07 07:07:26;;;;;;;16.02;12.52;;;;;;;16.16;49.16;100102.81;5015428;28;20025;-87
2022/05/07 07:09:52;;;;;;;13.73;12.27;;;;;;;17.28;49.15;100272.13;5015378;28;20021;-89
2022/05/07 07:12:19;;;;;;;11.75;10.50;;;;;;;16.68;48.62;100180.50;5014903;28;20009;-88
2022/05/07 07:14:45;;;;;;;11.48;10.32;;;;;;;17.11;48.58;100229.00;5015012;28;20032;-88
2022/05/07 07:17:10;;;;;;;11.52;10.32;;;;;;;17.37;48.17;100250.38;5014999;28;20486;-88
2022/05/07 07:19:36;;;;;;;14.07;12.70;;;;;;;16.90;47.76;100151.81;5014813;28;20470;-87
2022/05/07 07:22:01;;;;;;;13.90;10.73;;;;;;;17.30;47.59;100249.56;5032549;28;20079;-88
2022/05/07 07:24:27;;;;;;;13.38;10.50;;;;;;;17.03;47.15;100167.81;5032868;28;20033;-87
2022/05/07 07:26:52;;;;;;;11.43;10.20;;;;;;;17.35;46.67;100223.06;5015382;28;20021;-87
2022/05/07 07:29:18;;;;;;;11.95;10.77;;;;;;;17.43;46.53;100220.19;5015524;28;20018;-87
2022/05/07 07:31:43;;;;;;;12.80;11.45;;;;;;;17.01;46.15;100145.84;5032833;28;20036;-87
2022/05/07 07:34:08;;;;;;;14.43;10.00;;;;;;;17.89;45.95;100266.63;5015109;28;20409;-87
2022/05/07 07:36:34;;;;;;;12.50;10.57;;;;;;;17.73;46.09;100233.13;5015297;28;20025;-86
2022/05/07 07:39:01;;;;;;;12.90;11.60;;;;;;;17.37;45.64;100164.97;5032343;28;20096;-87
2022/05/07 07:41:27;;;;;;;10.00;9.07;;;;;;;17.92;45.37;100261.69;5032584;28;20100;-88
2022/05/07 07:43:52;;;;;;;14.52;10.40;;;;;;;17.99;45.26;100261.69;5014778;28;20132;-89
2022/05/07 07:49:02;;;;;;;13.23;10.40;;;;;;;18.23;45.33;100269.03;5032742;28;20028;-89
2022/05/07 07:51:27;;;;;;;11.48;10.27;;;;;;;18.31;44.43;100276.81;5032657;28;20026;-88
2022/05/07 07:53:53;;;;;;;13.57;10.20;;;;;;;17.65;44.15;100159.38;5014653;28;20014;-88
2022/05/07 07:56:18;;;;;;;11.45;10.32;;;;;;;17.68;43.87;100158.97;5014196;28;20022;-88
2022/05/07 07:58:44;;;;;;;12.20;10.90;;;;;;;18.50;43.17;100256.38;5031571;28;20057;-88
2022/05/07 08:01:09;;;;;;;9.70;8.70;;;;;;;17.58;43.00;100096.31;5031673;28;20032;-88
2022/05/07 08:03:35;;;;;;;10.07;9.05;;;;;;;18.31;42.78;100212.66;5013920;28;20105;-89
2022/05/07 08:06:00;;;;;;;9.95;6.25;;;;;;;18.69;42.09;100263.56;5031670;28;20392;-88
2022/05/07 08:13:54;;;;;;;6.90;6.05;;;;;;;18.79;40.35;100259.59;5031572;28;20520;-88
2022/05/07 08:16:21;;;;;;;10.63;5.93;;;;;;;18.64;40.12;100241.16;5031672;28;20100;-87
2022/05/07 08:18:48;;;;;;;8.93;7.13;;;;;;;17.64;39.74;100044.75;5014182;28;20031;-88
2022/05/07 08:21:13;;;;;;;8.85;6.65;;;;;;;19.16;39.56;100260.59;5031357;28;20036;-87
2022/05/07 08:23:41;;;;;;;6.32;5.70;;;;;;;18.78;39.30;100189.22;5013980;28;20025;-87
2022/05/07 08:26:07;;;;;;;9.55;7.38;;;;;;;19.07;39.26;100237.81;5031848;28;20030;-88
2022/05/07 08:28:37;;;;;;;10.02;6.90;;;;;;;18.95;38.96;100185.00;5016119;28;20075;-87
2022/05/07 08:31:03;;;;;;;9.88;5.32;;;;;;;18.64;38.80;100126.97;5032156;28;20108;-88
2022/05/07 08:33:31;;;;;;;11.90;6.28;;;;;;;19.51;38.48;100253.78;5031810;28;20095;-88
2022/05/07 08:35:57;;;;;;;6.82;5.60;;;;;;;19.63;38.56;100259.28;5014226;28;20390;-88
2022/05/07 08:38:22;;;;;;;7.47;5.25;;;;;;;19.36;38.09;100207.75;5032085;28;20025;-87
2022/05/07 08:40:48;;;;;;;10.73;6.80;;;;;;;18.83;38.12;100133.22;5032454;28;20033;-87
2022/05/07 08:43:15;;;;;;;7.47;5.78;;;;;;;19.26;37.71;100218.94;5014738;28;20049;-88
2022/05/07 08:45:41;;;;;;;7.65;6.72;;;;;;;19.02;37.82;100209.84;5031690;28;20526;-88
2022/05/07 08:48:07;;;;;;;7.80;6.60;;;;;;;18.88;38.05;100188.75;5031560;28;20417;-87
2022/05/07 08:50:33;;;;;;;10.70;5.90;;;;;;;19.22;37.63;100279.31;5031646;28;20030;-87
2022/05/07 08:52:58;;;;;;;9.95;5.70;;;;;;;19.12;37.33;100220.06;5032068;28;20501;-88
2022/05/07 08:55:24;;;;;;;8.60;6.90;;;;;;;19.12;37.38;100192.47;5031676;28;20033;-87
2022/05/07 08:57:51;;;;;;;6.53;5.28;;;;;;;19.31;37.06;100199.53;5031185;28;20042;-87
2022/05/07 09:00:19;;;;;;;8.85;5.88;;;;;;;19.24;36.86;100196.09;5016900;28;20025;-87
2022/05/07 09:02:55;;;;;;;7.60;5.57;;;;;;;19.53;36.08;100191.97;5035932;28;20048;-87
2022/05/07 09:05:21;;;;;;;10.10;6.00;;;;;;;19.55;35.32;100150.53;5017977;28;20025;-87
2022/05/07 09:07:57;;;;;;;8.57;6.00;;;;;;;20.31;33.83;100189.50;5035569;28;20057;-86
2022/05/07 09:10:33;;;;;;;13.98;6.70;;;;;;;20.94;34.11;100245.44;5017864;28;20029;-89
2022/05/07 09:13:17;;;;;;;8.10;5.97;;;;;;;20.85;33.43;100211.94;5017795;28;20537;-87
2022/05/07 09:15:52;;;;;;;8.32;5.65;;;;;;;20.94;33.69;100238.22;5017358;28;20037;-87
2022/05/07 09:18:20;;;;;;;7.38;5.13;;;;;;;20.56;33.71;100144.59;5035287;28;20036;-88
2022/05/07 09:21:24;;;;;;;9.20;6.55;;;;;;;21.37;33.21;100231.78;5017203;28;20088;-86
2022/05/07 09:23:55;;;;;;;9.10;5.10;;;;;;;21.51;33.05;100232.41;5034714;28;20025;-86
2022/05/07 09:26:24;;;;;;;9.43;5.53;;;;;;;21.56;33.03;100233.38;5017582;28;20022;-87
2022/05/07 09:28:50;;;;;;;6.68;5.35;;;;;;;21.14;32.70;100194.13;5035393;28;20033;-87
2022/05/07 09:31:26;;;;;;;6.22;4.78;;;;;;;20.98;32.87;100194.81;5018030;28;20029;-87
2022/05/07 09:33:52;;;;;;;8.73;5.88;;;;;;;20.56;33.07;100139.25;5017281;28;20022;-86
2022/05/07 09:36:18;;;;;;;8.93;6.40;;;;;;;20.66;32.87;100164.69;5035194;28;20033;-87
2022/05/07 09:38:43;;;;;;;9.35;7.50;;;;;;;20.75;32.64;100123.88;5035145;28;20036;-86
2022/05/07 09:41:19;;;;;;;7.85;6.22;;;;;;;21.20;32.08;100131.44;5017186;28;20030;-86
2022/05/07 09:43:46;;;;;;;8.95;6.20;;;;;;;22.06;31.86;100216.75;5017257;28;20032;-87
2022/05/07 09:46:11;;;;;;;9.30;5.20;;;;;;;22.42;31.26;100212.94;5034733;28;20025;-86
2022/05/07 09:48:38;;;;;;;7.13;5.20;;;;;;;21.51;31.26;100052.38;5034892;28;20039;-86
2022/05/07 09:51:04;;;;;;;13.20;5.80;;;;;;;22.51;31.10;100187.28;5034903;28;20076;-88
2022/05/07 09:58:59;;;;;;;14.10;6.07;;;;;;;22.39;30.31;100135.41;5034154;28;20048;-87
2022/05/07 10:01:56;;;;;;;6.82;5.25;;;;;;;22.82;30.21;100151.00;5016704;28;20037;-87
2022/05/07 10:04:27;;;;;;;9.63;5.47;;;;;;;23.45;28.94;100201.06;5034211;28;20030;-87
2022/05/07 10:07:14;;;;;;;6.97;5.07;;;;;;;23.52;29.56;100195.50;5034159;28;20071;-86
2022/05/07 10:09:41;;;;;;;8.65;4.40;;;;;;;23.20;28.93;100103.69;5033517;28;20092;-86
2022/05/07 10:12:09;;;;;;;8.10;6.05;;;;;;;23.98;28.79;100159.25;5034578;28;20406;-86
2022/05/07 10:14:35;;;;;;;8.00;4.90;;;;;;;24.11;27.55;100125.69;5034356;28;20037;-86
2022/05/07 10:17:11;;;;;;;10.82;6.18;;;;;;;24.74;27.31;100186.31;5034155;28;20078;-86
2022/05/07 10:19:42;;;;;;;6.95;4.85;;;;;;;24.71;27.32;100184.94;5033939;28;20040;-86
2022/05/07 10:22:21;;;;;;;8.77;5.18;;;;;;;24.84;26.95;100177.50;5016517;28;20056;-87
2022/05/07 10:24:48;;;;;;;6.97;4.43;;;;;;;24.45;27.18;100109.31;5034207;28;20034;-87
2022/05/07 10:27:30;;;;;;;5.57;4.40;;;;;;;24.88;27.19;100190.22;5016558;28;20021;-86
2022/05/07 10:30:09;;;;;;;6.00;4.75;;;;;;;24.51;26.61;100138.81;5016599;28;20017;-86
2022/05/07 10:32:56;;;;;;;6.53;4.43;;;;;;;24.92;26.84;100180.53;5034247;28;20017;-86
2022/05/07 10:35:44;;;;;;;8.30;4.72;;;;;;;24.87;26.44;100112.97;5016329;28;20021;-87
2022/05/07 10:38:15;;;;;;;6.72;4.40;;;;;;;25.01;26.42;100114.19;5034098;28;20079;-87
2022/05/07 10:40:54;;;;;;;6.00;4.85;;;;;;;25.65;26.12;100167.34;5016095;28;20021;-86
2022/05/07 10:43:38;;;;;;;8.57;4.50;;;;;;;25.86;25.19;100158.28;5033585;28;20475;-86
2022/05/07 10:46:14;;;;;;;6.65;4.63;;;;;;;25.45;25.80;100070.69;5015650;28;20028;-87
2022/05/07 10:49:01;;;;;;;7.70;4.88;;;;;;;26.10;25.08;100161.38;5033673;28;20024;-87
2022/05/07 10:51:53;;;;;;;8.10;4.78;;;;;;;25.71;24.62;100093.28;5033545;28;20021;-87
2022/05/07 10:54:23;;;;;;;8.85;4.85;;;;;;;26.01;25.04;100154.00;5015288;28;20021;-87
2022/05/07 10:56:57;;;;;;;7.10;4.65;;;;;;;26.03;24.64;100144.56;5032935;28;20048;-87
2022/05/07 10:59:25;;;;;;;6.25;4.72;;;;;;;26.07;24.41;100147.56;5032562;28;20103;-87
2022/05/07 11:01:51;;;;;;;7.50;4.72;;;;;;;26.04;24.08;100121.84;5015078;28;20030;-87
2022/05/07 11:04:22;;;;;;;9.63;5.63;;;;;;;25.95;23.70;100099.88;5033003;28;20030;-87
2022/05/07 11:06:53;;;;;;;7.88;5.47;;;;;;;26.34;23.63;100142.81;5032973;28;20022;-87
2022/05/07 11:09:20;;;;;;;7.75;7.00;;;;;;;25.98;23.53;100068.75;5032654;28;20022;-86
2022/05/07 11:11:49;;;;;;;10.48;8.23;;;;;;;26.52;23.32;100136.88;5014812;28;20025;-86
2022/05/07 11:14:22;;;;;;;6.85;6.00;;;;;;;26.51;22.65;100123.59;5014687;28;20387;-87
2022/05/07 11:16:48;;;;;;;7.72;6.10;;;;;;;26.11;23.10;100062.88;5032391;28;20033;-86
2022/05/07 11:19:33;;;;;;;6.25;5.07;;;;;;;26.10;22.94;100066.66;5014642;28;20025;-86
2022/05/07 11:22:02;;;;;;;8.35;5.57;;;;;;;25.98;22.88;100041.69;5031226;28;20494;-87
2022/05/07 11:24:28;;;;;;;7.18;5.60;;;;;;;26.56;23.02;100129.84;5032239;28;20025;-87
2022/05/07 11:27:00;;;;;;;8.02;6.22;;;;;;;26.68;22.61;100121.47;5032377;28;20025;-87
2022/05/07 11:29:26;;;;;;;9.27;6.85;;;;;;;26.09;22.23;100026.31;5032021;28;20072;-86
2022/05/07 11:32:00;;;;;;;6.68;5.03;;;;;;;26.22;22.07;100023.91;5014193;28;20025;-86
2022/05/07 11:34:35;;;;;;;7.13;5.63;;;;;;;26.70;21.77;100119.28;5031933;28;20451;-85
2022/05/07 11:37:15;;;;;;;9.60;5.03;;;;;;;26.55;21.63;100100.31;5014056;28;20086;-87
2022/05/07 11:39:55;;;;;;;7.30;5.65;;;;;;;26.54;21.19;100109.53;5014066;28;20113;-87
2022/05/07 11:42:39;;;;;;;6.95;4.97;;;;;;;26.64;21.74;100103.31;5031726;28;20029;-87
2022/05/07 11:45:29;;;;;;;7.22;5.10;;;;;;;26.72;21.75;100106.28;5031688;28;20535;-87
2022/05/07 11:48:03;;;;;;;11.03;8.97;;;;;;;26.75;22.12;100094.91;5004944;28;20039;-86
2022/05/07 11:50:41;;;;;;;8.90;6.18;;;;;;;26.41;21.90;100026.94;5031943;28;20026;-85
2022/05/07 11:53:15;;;;;;;12.57;9.57;;;;;;;27.02;21.93;100099.28;5031756;28;20021;-86